sensor_id;sensor_type;location;lat;lon;timestamp;P1;durP1;ratioP1;P2;durP2;ratioP2
31694;SDS011;18289;51.330;4.946;2022-09-13T00:00:29;5.95;;;3.70;;
31694;SDS011;18289;51.330;4.946;2022-09-13T00:02:55;4.15;;;3.55;;
31694;SDS011;18289;51.330;4.946;2022-09-13T00:05:21;5.75;;;3.83;;
31694;SDS011;18289;51.330;4.946;2022-09-13T00:07:47;4.38;;;3.67;;
31694;SDS011;18289;51.330;4.946;2022-09-13T00:10:13;3.97;;;3.67;;
31694;SDS011;18289;51.330;4.946;2022-09-13T00:12:38;4.15;;;3.83;;
31694;SDS011;18289;51.330;4.946;2022-09-13T00:15:04;3.58;;;3.28;;
31694;SDS011;18289;51.330;4.946;2022-09-13T00:17:30;5.45;;;3.97;;
31694;SDS011;18289;51.330;4.946;2022-09-13T00:19:56;4.28;;;3.53;;
31694;SDS011;18289;51.330;4.946;2022-09-13T00:22:22;3.80;;;3.38;;
31694;SDS011;18289;51.330;4.946;2022-09-13T00:24:48;7.03;;;3.90;;
31694;SDS011;18289;51.330;4.946;2022-09-13T00:27:14;3.70;;;3.40;;
31694;SDS011;18289;51.330;4.946;2022-09-13T00:29:40;5.90;;;3.85;;
31694;SDS011;18289;51.330;4.946;2022-09-13T00:32:06;3.95;;;3.58;;
31694;SDS011;18289;51.330;4.946;2022-09-13T00:34:32;4.20;;;3.88;;
31694;SDS011;18289;51.330;4.946;2022-09-13T00:36:57;4.38;;;3.85;;
31694;SDS011;18289;51.330;4.946;2022-09-13T00:39:23;5.00;;;3.83;;
31694;SDS011;18289;51.330;4.946;2022-09-13T00:41:49;4.55;;;4.15;;
31694;SDS011;18289;51.330;4.946;2022-09-13T00:47:16;4.97;;;4.57;;
31694;SDS011;18289;51.330;4.946;2022-09-13T00:49:45;4.95;;;4.20;;
31694;SDS011;18289;51.330;4.946;2022-09-13T00:52:13;4.90;;;4.45;;
31694;SDS011;18289;51.330;4.946;2022-09-13T00:54:43;4.85;;;4.05;;
31694;SDS011;18289;51.330;4.946;2022-09-13T00:57:14;4.25;;;3.85;;
31694;SDS011;18289;51.330;4.946;2022-09-13T00:59:55;5.25;;;4.03;;
31694;SDS011;18289;51.330;4.946;2022-09-13T01:02:41;4.40;;;3.97;;
31694;SDS011;18289;51.330;4.946;2022-09-13T01:05:14;5.68;;;4.22;;
31694;SDS011;18289;51.330;4.946;2022-09-13T01:07:44;4.20;;;3.90;;
31694;SDS011;18289;51.330;4.946;2022-09-13T01:10:10;4.88;;;4.43;;
31694;SDS011;18289;51.330;4.946;2022-09-13T01:12:41;5.57;;;4.45;;
31694;SDS011;18289;51.330;4.946;2022-09-13T01:15:19;4.60;;;4.20;;
31694;SDS011;18289;51.330;4.946;2022-09-13T01:17:46;4.13;;;3.83;;
31694;SDS011;18289;51.330;4.946;2022-09-13T01:20:13;4.88;;;4.47;;
31694;SDS011;18289;51.330;4.946;2022-09-13T01:39:16;5.93;;;4.38;;
31694;SDS011;18289;51.330;4.946;2022-09-13T01:42:09;4.50;;;4.10;;
31694;SDS011;18289;51.330;4.946;2022-09-13T01:52:52;4.28;;;3.88;;
31694;SDS011;18289;51.330;4.946;2022-09-13T01:57:54;4.80;;;4.32;;
31694;SDS011;18289;51.330;4.946;2022-09-13T02:00:43;4.95;;;3.83;;
31694;SDS011;18289;51.330;4.946;2022-09-13T02:03:22;4.00;;;3.70;;
31694;SDS011;18289;51.330;4.946;2022-09-13T02:05:59;4.90;;;4.38;;
31694;SDS011;18289;51.330;4.946;2022-09-13T02:08:34;5.00;;;4.50;;
31694;SDS011;18289;51.330;4.946;2022-09-13T02:11:10;5.78;;;5.28;;
31694;SDS011;18289;51.330;4.946;2022-09-13T02:13:39;7.15;;;4.72;;
31694;SDS011;18289;51.330;4.946;2022-09-13T02:16:16;5.30;;;4.50;;
31694;SDS011;18289;51.330;4.946;2022-09-13T02:18:57;4.43;;;4.03;;
31694;SDS011;18289;51.330;4.946;2022-09-13T02:21:28;6.28;;;4.10;;
31694;SDS011;18289;51.330;4.946;2022-09-13T02:24:02;4.10;;;3.75;;
31694;SDS011;18289;51.330;4.946;2022-09-13T02:26:34;4.65;;;4.25;;
31694;SDS011;18289;51.330;4.946;2022-09-13T02:29:04;5.88;;;4.10;;
31694;SDS011;18289;51.330;4.946;2022-09-13T02:31:35;4.13;;;3.83;;
31694;SDS011;18289;51.330;4.946;2022-09-13T02:34:08;4.10;;;3.80;;
31694;SDS011;18289;51.330;4.946;2022-09-13T02:36:44;5.03;;;4.07;;
31694;SDS011;18289;51.330;4.946;2022-09-13T02:39:13;4.30;;;3.90;;
31694;SDS011;18289;51.330;4.946;2022-09-13T02:57:25;6.93;;;4.50;;
31694;SDS011;18289;51.330;4.946;2022-09-13T03:00:03;4.80;;;4.30;;
31694;SDS011;18289;51.330;4.946;2022-09-13T03:02:32;5.60;;;3.95;;
31694;SDS011;18289;51.330;4.946;2022-09-13T03:04:59;6.25;;;4.47;;
31694;SDS011;18289;51.330;4.946;2022-09-13T03:07:25;5.07;;;4.22;;
31694;SDS011;18289;51.330;4.946;2022-09-13T03:09:56;4.38;;;4.05;;
31694;SDS011;18289;51.330;4.946;2022-09-13T03:18:04;4.75;;;4.25;;
31694;SDS011;18289;51.330;4.946;2022-09-13T03:26:22;4.68;;;4.28;;
31694;SDS011;18289;51.330;4.946;2022-09-13T03:29:23;4.88;;;4.47;;
31694;SDS011;18289;51.330;4.946;2022-09-13T03:32:09;4.60;;;4.18;;
31694;SDS011;18289;51.330;4.946;2022-09-13T03:37:56;5.57;;;4.87;;
31694;SDS011;18289;51.330;4.946;2022-09-13T03:43:24;7.32;;;5.55;;
31694;SDS011;18289;51.330;4.946;2022-09-13T03:46:35;6.03;;;5.45;;
31694;SDS011;18289;51.330;4.946;2022-09-13T03:49:02;7.05;;;5.13;;
31694;SDS011;18289;51.330;4.946;2022-09-13T03:53:58;6.07;;;4.63;;
31694;SDS011;18289;51.330;4.946;2022-09-13T03:56:29;5.93;;;5.00;;
31694;SDS011;18289;51.330;4.946;2022-09-13T03:58:55;7.45;;;6.05;;
31694;SDS011;18289;51.330;4.946;2022-09-13T04:01:22;6.20;;;5.68;;
31694;SDS011;18289;51.330;4.946;2022-09-13T04:03:48;5.40;;;4.68;;
31694;SDS011;18289;51.330;4.946;2022-09-13T04:06:14;5.70;;;4.78;;
31694;SDS011;18289;51.330;4.946;2022-09-13T04:08:40;5.68;;;4.68;;
31694;SDS011;18289;51.330;4.946;2022-09-13T04:11:06;5.00;;;3.95;;
31694;SDS011;18289;51.330;4.946;2022-09-13T04:13:33;6.50;;;5.47;;
31694;SDS011;18289;51.330;4.946;2022-09-13T04:16:01;6.18;;;5.60;;
31694;SDS011;18289;51.330;4.946;2022-09-13T04:18:28;4.90;;;4.50;;
31694;SDS011;18289;51.330;4.946;2022-09-13T04:20:56;5.18;;;4.78;;
31694;SDS011;18289;51.330;4.946;2022-09-13T04:23:23;4.18;;;3.78;;
31694;SDS011;18289;51.330;4.946;2022-09-13T04:25:51;5.80;;;5.25;;
31694;SDS011;18289;51.330;4.946;2022-09-13T04:28:17;4.50;;;4.10;;
31694;SDS011;18289;51.330;4.946;2022-09-13T04:30:44;6.32;;;4.63;;
31694;SDS011;18289;51.330;4.946;2022-09-13T04:33:10;4.90;;;4.38;;
31694;SDS011;18289;51.330;4.946;2022-09-13T04:35:36;5.10;;;4.50;;
31694;SDS011;18289;51.330;4.946;2022-09-13T04:38:06;6.68;;;4.93;;
31694;SDS011;18289;51.330;4.946;2022-09-13T04:40:33;4.50;;;4.00;;
31694;SDS011;18289;51.330;4.946;2022-09-13T04:42:59;6.13;;;4.40;;
31694;SDS011;18289;51.330;4.946;2022-09-13T04:45:26;9.98;;;5.43;;
31694;SDS011;18289;51.330;4.946;2022-09-13T04:47:53;8.18;;;5.40;;
31694;SDS011;18289;51.330;4.946;2022-09-13T04:50:20;5.78;;;4.28;;
31694;SDS011;18289;51.330;4.946;2022-09-13T04:52:46;4.80;;;3.90;;
31694;SDS011;18289;51.330;4.946;2022-09-13T04:55:12;4.50;;;3.70;;
31694;SDS011;18289;51.330;4.946;2022-09-13T04:57:38;5.05;;;4.35;;
31694;SDS011;18289;51.330;4.946;2022-09-13T05:00:07;4.18;;;3.75;;
31694;SDS011;18289;51.330;4.946;2022-09-13T05:02:34;4.20;;;3.80;;
31694;SDS011;18289;51.330;4.946;2022-09-13T05:04:59;5.30;;;4.40;;
31694;SDS011;18289;51.330;4.946;2022-09-13T05:07:25;4.70;;;4.30;;
31694;SDS011;18289;51.330;4.946;2022-09-13T05:09:51;4.28;;;3.88;;
31694;SDS011;18289;51.330;4.946;2022-09-13T05:12:17;8.05;;;4.10;;
31694;SDS011;18289;51.330;4.946;2022-09-13T05:14:42;4.40;;;4.00;;
31694;SDS011;18289;51.330;4.946;2022-09-13T05:17:08;7.25;;;4.95;;
31694;SDS011;18289;51.330;4.946;2022-09-13T05:19:34;5.70;;;5.18;;
31694;SDS011;18289;51.330;4.946;2022-09-13T05:22:00;6.18;;;5.00;;
31694;SDS011;18289;51.330;4.946;2022-09-13T05:24:26;4.32;;;3.92;;
31694;SDS011;18289;51.330;4.946;2022-09-13T05:26:52;6.78;;;4.70;;
31694;SDS011;18289;51.330;4.946;2022-09-13T05:29:18;4.25;;;3.95;;
31694;SDS011;18289;51.330;4.946;2022-09-13T05:31:44;4.95;;;3.80;;
31694;SDS011;18289;51.330;4.946;2022-09-13T05:34:11;4.65;;;4.15;;
31694;SDS011;18289;51.330;4.946;2022-09-13T05:36:39;6.25;;;5.38;;
31694;SDS011;18289;51.330;4.946;2022-09-13T05:39:06;10.57;;;4.82;;
31694;SDS011;18289;51.330;4.946;2022-09-13T05:41:36;9.38;;;5.43;;
31694;SDS011;18289;51.330;4.946;2022-09-13T05:44:01;5.22;;;4.10;;
31694;SDS011;18289;51.330;4.946;2022-09-13T05:46:27;5.30;;;4.00;;
31694;SDS011;18289;51.330;4.946;2022-09-13T05:48:56;5.30;;;4.38;;
31694;SDS011;18289;51.330;4.946;2022-09-13T05:51:22;6.63;;;5.03;;
31694;SDS011;18289;51.330;4.946;2022-09-13T05:53:51;5.40;;;4.88;;
31694;SDS011;18289;51.330;4.946;2022-09-13T05:56:20;7.53;;;4.68;;
31694;SDS011;18289;51.330;4.946;2022-09-13T05:58:48;6.72;;;4.45;;
31694;SDS011;18289;51.330;4.946;2022-09-13T06:01:16;6.60;;;4.88;;
31694;SDS011;18289;51.330;4.946;2022-09-13T06:03:46;4.70;;;4.30;;
31694;SDS011;18289;51.330;4.946;2022-09-13T06:06:13;7.35;;;5.13;;
31694;SDS011;18289;51.330;4.946;2022-09-13T06:08:40;6.70;;;5.82;;
31694;SDS011;18289;51.330;4.946;2022-09-13T06:11:09;5.65;;;4.88;;
31694;SDS011;18289;51.330;4.946;2022-09-13T06:13:37;6.28;;;4.45;;
31694;SDS011;18289;51.330;4.946;2022-09-13T06:16:04;5.85;;;4.32;;
31694;SDS011;18289;51.330;4.946;2022-09-13T06:18:31;4.72;;;4.22;;
31694;SDS011;18289;51.330;4.946;2022-09-13T06:21:02;5.30;;;4.80;;
31694;SDS011;18289;51.330;4.946;2022-09-13T06:23:29;7.20;;;5.72;;
31694;SDS011;18289;51.330;4.946;2022-09-13T06:26:06;6.63;;;6.03;;
31694;SDS011;18289;51.330;4.946;2022-09-13T06:28:34;7.05;;;5.45;;
31694;SDS011;18289;51.330;4.946;2022-09-13T06:33:27;8.07;;;5.32;;
31694;SDS011;18289;51.330;4.946;2022-09-13T06:35:53;6.32;;;5.72;;
31694;SDS011;18289;51.330;4.946;2022-09-13T06:38:19;8.88;;;5.93;;
31694;SDS011;18289;51.330;4.946;2022-09-13T06:40:45;5.80;;;5.30;;
31694;SDS011;18289;51.330;4.946;2022-09-13T06:43:10;8.23;;;6.05;;
31694;SDS011;18289;51.330;4.946;2022-09-13T06:45:36;6.85;;;5.57;;
31694;SDS011;18289;51.330;4.946;2022-09-13T06:48:02;9.07;;;5.95;;
31694;SDS011;18289;51.330;4.946;2022-09-13T06:50:28;7.50;;;5.50;;
31694;SDS011;18289;51.330;4.946;2022-09-13T06:52:57;8.07;;;6.70;;
31694;SDS011;18289;51.330;4.946;2022-09-13T06:55:22;9.30;;;6.00;;
31694;SDS011;18289;51.330;4.946;2022-09-13T06:57:49;12.38;;;6.85;;
31694;SDS011;18289;51.330;4.946;2022-09-13T07:00:14;12.43;;;6.50;;
31694;SDS011;18289;51.330;4.946;2022-09-13T07:02:40;6.80;;;6.15;;
31694;SDS011;18289;51.330;4.946;2022-09-13T07:05:06;10.10;;;6.45;;
31694;SDS011;18289;51.330;4.946;2022-09-13T07:07:32;8.90;;;6.20;;
31694;SDS011;18289;51.330;4.946;2022-09-13T07:09:58;8.43;;;6.70;;
31694;SDS011;18289;51.330;4.946;2022-09-13T07:12:25;8.85;;;6.82;;
31694;SDS011;18289;51.330;4.946;2022-09-13T07:14:50;7.53;;;6.13;;
31694;SDS011;18289;51.330;4.946;2022-09-13T07:17:16;10.80;;;6.47;;
31694;SDS011;18289;51.330;4.946;2022-09-13T07:19:42;8.27;;;5.80;;
31694;SDS011;18289;51.330;4.946;2022-09-13T07:22:08;7.95;;;6.68;;
31694;SDS011;18289;51.330;4.946;2022-09-13T07:24:34;7.78;;;6.10;;
31694;SDS011;18289;51.330;4.946;2022-09-13T07:26:59;8.43;;;6.47;;
31694;SDS011;18289;51.330;4.946;2022-09-13T07:29:25;7.68;;;6.88;;
31694;SDS011;18289;51.330;4.946;2022-09-13T07:31:52;8.68;;;6.90;;
31694;SDS011;18289;51.330;4.946;2022-09-13T07:34:19;9.90;;;6.20;;
31694;SDS011;18289;51.330;4.946;2022-09-13T07:36:47;9.77;;;6.38;;
31694;SDS011;18289;51.330;4.946;2022-09-13T07:39:13;7.20;;;6.45;;
31694;SDS011;18289;51.330;4.946;2022-09-13T07:41:40;10.45;;;7.50;;
31694;SDS011;18289;51.330;4.946;2022-09-13T07:44:06;10.73;;;6.80;;
31694;SDS011;18289;51.330;4.946;2022-09-13T07:46:34;7.47;;;6.78;;
31694;SDS011;18289;51.330;4.946;2022-09-13T07:49:02;8.30;;;7.25;;
31694;SDS011;18289;51.330;4.946;2022-09-13T07:51:28;8.77;;;6.45;;
31694;SDS011;18289;51.330;4.946;2022-09-13T07:53:57;8.48;;;6.80;;
31694;SDS011;18289;51.330;4.946;2022-09-13T07:56:27;7.07;;;6.22;;
31694;SDS011;18289;51.330;4.946;2022-09-13T07:58:55;9.35;;;7.00;;
31694;SDS011;18289;51.330;4.946;2022-09-13T08:01:25;9.27;;;7.07;;
31694;SDS011;18289;51.330;4.946;2022-09-13T08:03:54;8.15;;;7.25;;
31694;SDS011;18289;51.330;4.946;2022-09-13T08:06:27;9.07;;;7.07;;
31694;SDS011;18289;51.330;4.946;2022-09-13T08:08:54;10.15;;;7.38;;
31694;SDS011;18289;51.330;4.946;2022-09-13T08:11:24;9.20;;;8.13;;
31694;SDS011;18289;51.330;4.946;2022-09-13T08:13:58;10.07;;;8.70;;
31694;SDS011;18289;51.330;4.946;2022-09-13T08:16:25;12.38;;;8.27;;
31694;SDS011;18289;51.330;4.946;2022-09-13T08:18:52;10.00;;;8.73;;
31694;SDS011;18289;51.330;4.946;2022-09-13T08:21:20;10.52;;;9.00;;
31694;SDS011;18289;51.330;4.946;2022-09-13T08:23:46;10.43;;;9.40;;
31694;SDS011;18289;51.330;4.946;2022-09-13T08:26:12;10.70;;;9.40;;
31694;SDS011;18289;51.330;4.946;2022-09-13T08:28:39;9.90;;;8.05;;
31694;SDS011;18289;51.330;4.946;2022-09-13T08:33:33;10.40;;;9.25;;
31694;SDS011;18289;51.330;4.946;2022-09-13T08:36:00;12.00;;;9.15;;
31694;SDS011;18289;51.330;4.946;2022-09-13T08:38:26;24.05;;;13.05;;
31694;SDS011;18289;51.330;4.946;2022-09-13T08:40:56;12.32;;;10.15;;
31694;SDS011;18289;51.330;4.946;2022-09-13T08:46:21;28.42;;;11.90;;
31694;SDS011;18289;51.330;4.946;2022-09-13T08:48:51;13.70;;;11.43;;
31694;SDS011;18289;51.330;4.946;2022-09-13T08:51:29;21.67;;;12.07;;
31694;SDS011;18289;51.330;4.946;2022-09-13T08:53:57;18.95;;;11.20;;
31694;SDS011;18289;51.330;4.946;2022-09-13T09:01:48;11.57;;;10.38;;
31694;SDS011;18289;51.330;4.946;2022-09-13T09:09:54;15.40;;;11.45;;
31694;SDS011;18289;51.330;4.946;2022-09-13T09:15:02;14.15;;;10.60;;
31694;SDS011;18289;51.330;4.946;2022-09-13T09:17:31;14.20;;;10.38;;
31694;SDS011;18289;51.330;4.946;2022-09-13T09:20:41;12.48;;;11.27;;
31694;SDS011;18289;51.330;4.946;2022-09-13T09:23:07;12.82;;;11.02;;
31694;SDS011;18289;51.330;4.946;2022-09-13T09:25:39;12.98;;;11.15;;
31694;SDS011;18289;51.330;4.946;2022-09-13T09:28:12;13.25;;;10.13;;
31694;SDS011;18289;51.330;4.946;2022-09-13T09:31:06;13.63;;;10.32;;
31694;SDS011;18289;51.330;4.946;2022-09-13T09:36:21;11.63;;;10.45;;
31694;SDS011;18289;51.330;4.946;2022-09-13T09:39:08;16.63;;;11.15;;
31694;SDS011;18289;51.330;4.946;2022-09-13T09:41:37;14.70;;;10.93;;
31694;SDS011;18289;51.330;4.946;2022-09-13T09:44:22;15.13;;;10.52;;
31694;SDS011;18289;51.330;4.946;2022-09-13T09:46:55;11.98;;;10.65;;
31694;SDS011;18289;51.330;4.946;2022-09-13T09:49:37;12.93;;;11.20;;
31694;SDS011;18289;51.330;4.946;2022-09-13T09:52:27;13.55;;;10.93;;
31694;SDS011;18289;51.330;4.946;2022-09-13T09:55:06;14.05;;;11.27;;
31694;SDS011;18289;51.330;4.946;2022-09-13T10:00:15;11.95;;;10.85;;
31694;SDS011;18289;51.330;4.946;2022-09-13T10:02:44;13.57;;;9.82;;
31694;SDS011;18289;51.330;4.946;2022-09-13T10:05:12;9.95;;;8.98;;
31694;SDS011;18289;51.330;4.946;2022-09-13T10:07:48;11.20;;;10.10;;
31694;SDS011;18289;51.330;4.946;2022-09-13T10:13:18;11.73;;;10.52;;
31694;SDS011;18289;51.330;4.946;2022-09-13T10:15:55;11.52;;;10.45;;
31694;SDS011;18289;51.330;4.946;2022-09-13T10:18:45;12.70;;;11.50;;
31694;SDS011;18289;51.330;4.946;2022-09-13T10:23:43;12.43;;;11.13;;
31694;SDS011;18289;51.330;4.946;2022-09-13T10:26:12;12.53;;;11.27;;
31694;SDS011;18289;51.330;4.946;2022-09-13T10:31:27;14.02;;;11.13;;
31694;SDS011;18289;51.330;4.946;2022-09-13T10:34:03;14.48;;;12.30;;
31694;SDS011;18289;51.330;4.946;2022-09-13T10:39:31;11.25;;;9.93;;
31694;SDS011;18289;51.330;4.946;2022-09-13T10:42:00;12.50;;;10.68;;
31694;SDS011;18289;51.330;4.946;2022-09-13T10:44:45;11.60;;;10.48;;
31694;SDS011;18289;51.330;4.946;2022-09-13T10:47:32;12.38;;;11.20;;
31694;SDS011;18289;51.330;4.946;2022-09-13T10:52:45;14.57;;;13.27;;
31694;SDS011;18289;51.330;4.946;2022-09-13T10:55:23;15.35;;;13.77;;
31694;SDS011;18289;51.330;4.946;2022-09-13T10:58:15;14.65;;;10.98;;
31694;SDS011;18289;51.330;4.946;2022-09-13T11:06:34;13.52;;;12.20;;
31694;SDS011;18289;51.330;4.946;2022-09-13T11:09:15;12.85;;;11.43;;
31694;SDS011;18289;51.330;4.946;2022-09-13T11:11:52;16.50;;;12.68;;
31694;SDS011;18289;51.330;4.946;2022-09-13T11:36:41;24.45;;;14.45;;
31694;SDS011;18289;51.330;4.946;2022-09-13T11:47:47;12.98;;;11.73;;
31694;SDS011;18289;51.330;4.946;2022-09-13T11:56:20;14.38;;;12.85;;
31694;SDS011;18289;51.330;4.946;2022-09-13T11:59:14;12.88;;;11.63;;
31694;SDS011;18289;51.330;4.946;2022-09-13T12:01:59;14.27;;;12.88;;
31694;SDS011;18289;51.330;4.946;2022-09-13T12:04:32;15.30;;;13.13;;
31694;SDS011;18289;51.330;4.946;2022-09-13T12:07:09;14.68;;;13.02;;
31694;SDS011;18289;51.330;4.946;2022-09-13T12:09:46;13.45;;;12.13;;
31694;SDS011;18289;51.330;4.946;2022-09-13T12:12:19;13.05;;;11.75;;
31694;SDS011;18289;51.330;4.946;2022-09-13T12:15:00;13.63;;;11.30;;
31694;SDS011;18289;51.330;4.946;2022-09-13T12:17:36;21.30;;;12.55;;
31694;SDS011;18289;51.330;4.946;2022-09-13T12:20:11;12.93;;;11.63;;
31694;SDS011;18289;51.330;4.946;2022-09-13T12:22:44;13.00;;;11.20;;
31694;SDS011;18289;51.330;4.946;2022-09-13T12:25:17;17.90;;;11.52;;
31694;SDS011;18289;51.330;4.946;2022-09-13T12:27:53;19.10;;;11.38;;
31694;SDS011;18289;51.330;4.946;2022-09-13T12:30:49;12.70;;;10.02;;
31694;SDS011;18289;51.330;4.946;2022-09-13T12:33:19;11.60;;;9.77;;
31694;SDS011;18289;51.330;4.946;2022-09-13T12:36:31;11.38;;;10.27;;
31694;SDS011;18289;51.330;4.946;2022-09-13T12:44:37;9.10;;;8.20;;
31694;SDS011;18289;51.330;4.946;2022-09-13T12:47:18;10.07;;;9.18;;
31694;SDS011;18289;51.330;4.946;2022-09-13T13:03:43;6.20;;;5.22;;
31694;SDS011;18289;51.330;4.946;2022-09-13T13:06:15;8.80;;;6.22;;
31694;SDS011;18289;51.330;4.946;2022-09-13T13:08:50;7.07;;;6.38;;
31694;SDS011;18289;51.330;4.946;2022-09-13T13:11:22;6.53;;;5.18;;
31694;SDS011;18289;51.330;4.946;2022-09-13T13:13:57;5.43;;;5.03;;
31694;SDS011;18289;51.330;4.946;2022-09-13T13:16:30;5.40;;;4.90;;
31694;SDS011;18289;51.330;4.946;2022-09-13T13:19:00;6.50;;;5.93;;
31694;SDS011;18289;51.330;4.946;2022-09-13T13:21:37;15.48;;;7.65;;
31694;SDS011;18289;51.330;4.946;2022-09-13T13:26:46;17.58;;;7.38;;
31694;SDS011;18289;51.330;4.946;2022-09-13T13:29:20;7.78;;;6.05;;
31694;SDS011;18289;51.330;4.946;2022-09-13T13:36:53;7.28;;;5.55;;
31694;SDS011;18289;51.330;4.946;2022-09-13T13:46:48;6.32;;;5.63;;
31694;SDS011;18289;51.330;4.946;2022-09-13T13:57:59;7.28;;;6.15;;
31694;SDS011;18289;51.330;4.946;2022-09-13T14:00:36;7.20;;;5.93;;
31694;SDS011;18289;51.330;4.946;2022-09-13T14:05:52;7.50;;;6.90;;
31694;SDS011;18289;51.330;4.946;2022-09-13T14:13:50;11.00;;;6.53;;
31694;SDS011;18289;51.330;4.946;2022-09-13T14:24:49;7.20;;;6.47;;
31694;SDS011;18289;51.330;4.946;2022-09-13T14:30:00;7.63;;;6.90;;
31694;SDS011;18289;51.330;4.946;2022-09-13T14:32:38;6.22;;;5.63;;
31694;SDS011;18289;51.330;4.946;2022-09-13T14:35:21;7.85;;;6.35;;
31694;SDS011;18289;51.330;4.946;2022-09-13T14:38:21;7.20;;;6.53;;
31694;SDS011;18289;51.330;4.946;2022-09-13T14:40:59;9.05;;;7.63;;
31694;SDS011;18289;51.330;4.946;2022-09-13T14:43:35;7.80;;;6.87;;
31694;SDS011;18289;51.330;4.946;2022-09-13T14:51:29;9.43;;;8.13;;
31694;SDS011;18289;51.330;4.946;2022-09-13T14:54:14;8.90;;;8.00;;
31694;SDS011;18289;51.330;4.946;2022-09-13T14:56:49;8.15;;;6.82;;
31694;SDS011;18289;51.330;4.946;2022-09-13T15:00:04;8.20;;;7.50;;
31694;SDS011;18289;51.330;4.946;2022-09-13T15:02:12;10.63;;;8.00;;
31694;SDS011;18289;51.330;4.946;2022-09-13T15:04:53;7.10;;;6.50;;
31694;SDS011;18289;51.330;4.946;2022-09-13T15:07:28;10.80;;;8.50;;
31694;SDS011;18289;51.330;4.946;2022-09-13T15:09:56;8.10;;;7.10;;
31694;SDS011;18289;51.330;4.946;2022-09-13T15:12:47;9.27;;;8.07;;
31694;SDS011;18289;51.330;4.946;2022-09-13T15:15:24;9.00;;;8.27;;
31694;SDS011;18289;51.330;4.946;2022-09-13T15:23:22;7.50;;;6.95;;
31694;SDS011;18289;51.330;4.946;2022-09-13T15:26:01;9.07;;;7.60;;
31694;SDS011;18289;51.330;4.946;2022-09-13T15:31:09;9.57;;;7.57;;
31694;SDS011;18289;51.330;4.946;2022-09-13T15:33:36;8.85;;;6.85;;
31694;SDS011;18289;51.330;4.946;2022-09-13T15:36:14;7.07;;;6.35;;
31694;SDS011;18289;51.330;4.946;2022-09-13T15:38:59;7.85;;;6.25;;
31694;SDS011;18289;51.330;4.946;2022-09-13T15:41:52;8.15;;;7.30;;
31694;SDS011;18289;51.330;4.946;2022-09-13T15:44:25;9.27;;;8.30;;
31694;SDS011;18289;51.330;4.946;2022-09-13T15:46:54;7.60;;;6.95;;
31694;SDS011;18289;51.330;4.946;2022-09-13T15:49:24;9.02;;;7.10;;
31694;SDS011;18289;51.330;4.946;2022-09-13T15:51:52;8.50;;;7.80;;
31694;SDS011;18289;51.330;4.946;2022-09-13T15:54:20;9.48;;;8.13;;
31694;SDS011;18289;51.330;4.946;2022-09-13T15:56:47;8.20;;;7.50;;
31694;SDS011;18289;51.330;4.946;2022-09-13T15:59:17;8.32;;;7.63;;
31694;SDS011;18289;51.330;4.946;2022-09-13T16:01:47;8.65;;;7.90;;
31694;SDS011;18289;51.330;4.946;2022-09-13T16:04:17;9.10;;;8.20;;
31694;SDS011;18289;51.330;4.946;2022-09-13T16:06:44;10.00;;;8.65;;
31694;SDS011;18289;51.330;4.946;2022-09-13T16:09:17;10.38;;;9.35;;
31694;SDS011;18289;51.330;4.946;2022-09-13T16:11:50;10.57;;;9.15;;
31694;SDS011;18289;51.330;4.946;2022-09-13T16:14:16;11.40;;;8.57;;
31694;SDS011;18289;51.330;4.946;2022-09-13T16:16:43;11.68;;;7.60;;
31694;SDS011;18289;51.330;4.946;2022-09-13T16:19:20;8.88;;;8.07;;
31694;SDS011;18289;51.330;4.946;2022-09-13T16:21:47;10.95;;;8.45;;
31694;SDS011;18289;51.330;4.946;2022-09-13T16:24:13;9.07;;;8.27;;
31694;SDS011;18289;51.330;4.946;2022-09-13T16:26:40;9.77;;;8.43;;
31694;SDS011;18289;51.330;4.946;2022-09-13T16:29:07;8.85;;;7.90;;
31694;SDS011;18289;51.330;4.946;2022-09-13T16:31:34;13.23;;;9.82;;
31694;SDS011;18289;51.330;4.946;2022-09-13T16:34:00;10.00;;;8.73;;
31694;SDS011;18289;51.330;4.946;2022-09-13T16:36:26;10.63;;;8.95;;
31694;SDS011;18289;51.330;4.946;2022-09-13T16:38:53;8.85;;;8.15;;
31694;SDS011;18289;51.330;4.946;2022-09-13T16:41:20;8.65;;;7.85;;
31694;SDS011;18289;51.330;4.946;2022-09-13T16:43:46;8.55;;;7.82;;
31694;SDS011;18289;51.330;4.946;2022-09-13T16:46:12;7.90;;;6.65;;
31694;SDS011;18289;51.330;4.946;2022-09-13T16:48:38;8.63;;;6.32;;
31694;SDS011;18289;51.330;4.946;2022-09-13T16:51:05;7.55;;;5.28;;
31694;SDS011;18289;51.330;4.946;2022-09-13T16:53:34;7.55;;;5.40;;
31694;SDS011;18289;51.330;4.946;2022-09-13T16:56:05;5.38;;;4.80;;
31694;SDS011;18289;51.330;4.946;2022-09-13T16:58:35;7.47;;;4.80;;
31694;SDS011;18289;51.330;4.946;2022-09-13T17:01:03;5.78;;;4.63;;
31694;SDS011;18289;51.330;4.946;2022-09-13T17:03:33;7.20;;;4.30;;
31694;SDS011;18289;51.330;4.946;2022-09-13T17:06:00;5.28;;;4.40;;
31694;SDS011;18289;51.330;4.946;2022-09-13T17:08:28;5.90;;;4.22;;
31694;SDS011;18289;51.330;4.946;2022-09-13T17:10:54;5.85;;;3.80;;
31694;SDS011;18289;51.330;4.946;2022-09-13T17:13:20;5.60;;;4.15;;
31694;SDS011;18289;51.330;4.946;2022-09-13T17:15:46;6.25;;;3.90;;
31694;SDS011;18289;51.330;4.946;2022-09-13T17:18:11;4.20;;;3.80;;
31694;SDS011;18289;51.330;4.946;2022-09-13T17:20:44;4.10;;;3.70;;
31694;SDS011;18289;51.330;4.946;2022-09-13T17:23:11;7.55;;;3.70;;
31694;SDS011;18289;51.330;4.946;2022-09-13T17:25:39;5.28;;;3.45;;
31694;SDS011;18289;51.330;4.946;2022-09-13T17:28:07;4.53;;;3.70;;
31694;SDS011;18289;51.330;4.946;2022-09-13T17:30:33;4.43;;;3.60;;
31694;SDS011;18289;51.330;4.946;2022-09-13T17:32:58;5.97;;;3.97;;
31694;SDS011;18289;51.330;4.946;2022-09-13T17:35:24;4.28;;;3.40;;
31694;SDS011;18289;51.330;4.946;2022-09-13T17:37:50;4.15;;;3.75;;
31694;SDS011;18289;51.330;4.946;2022-09-13T17:40:15;7.75;;;4.18;;
31694;SDS011;18289;51.330;4.946;2022-09-13T17:42:41;4.57;;;3.25;;
31694;SDS011;18289;51.330;4.946;2022-09-13T17:45:07;4.32;;;3.38;;
31694;SDS011;18289;51.330;4.946;2022-09-13T17:47:33;4.20;;;3.72;;
31694;SDS011;18289;51.330;4.946;2022-09-13T17:49:59;5.88;;;3.80;;
31694;SDS011;18289;51.330;4.946;2022-09-13T17:52:26;9.20;;;4.10;;
31694;SDS011;18289;51.330;4.946;2022-09-13T17:54:51;4.45;;;3.30;;
31694;SDS011;18289;51.330;4.946;2022-09-13T17:57:18;5.35;;;3.70;;
31694;SDS011;18289;51.330;4.946;2022-09-13T17:59:43;4.97;;;3.42;;
31694;SDS011;18289;51.330;4.946;2022-09-13T18:02:11;8.23;;;3.20;;
31694;SDS011;18289;51.330;4.946;2022-09-13T18:04:37;5.32;;;3.30;;
31694;SDS011;18289;51.330;4.946;2022-09-13T18:07:02;6.85;;;3.13;;
31694;SDS011;18289;51.330;4.946;2022-09-13T18:09:28;4.82;;;3.25;;
31694;SDS011;18289;51.330;4.946;2022-09-13T18:11:54;3.90;;;3.47;;
31694;SDS011;18289;51.330;4.946;2022-09-13T18:14:19;3.75;;;3.38;;
31694;SDS011;18289;51.330;4.946;2022-09-13T18:16:46;6.97;;;3.67;;
31694;SDS011;18289;51.330;4.946;2022-09-13T18:19:19;4.57;;;3.45;;
31694;SDS011;18289;51.330;4.946;2022-09-13T18:21:46;5.05;;;3.20;;
31694;SDS011;18289;51.330;4.946;2022-09-13T18:24:11;4.75;;;2.95;;
31694;SDS011;18289;51.330;4.946;2022-09-13T18:26:37;6.28;;;3.55;;
31694;SDS011;18289;51.330;4.946;2022-09-13T18:29:04;6.88;;;3.50;;
31694;SDS011;18289;51.330;4.946;2022-09-13T18:31:35;5.43;;;3.30;;
31694;SDS011;18289;51.330;4.946;2022-09-13T18:34:02;3.53;;;3.15;;
31694;SDS011;18289;51.330;4.946;2022-09-13T18:36:30;5.30;;;3.90;;
31694;SDS011;18289;51.330;4.946;2022-09-13T18:38:57;4.13;;;3.17;;
31694;SDS011;18289;51.330;4.946;2022-09-13T18:41:24;4.18;;;2.70;;
31694;SDS011;18289;51.330;4.946;2022-09-13T18:43:52;4.43;;;3.00;;
31694;SDS011;18289;51.330;4.946;2022-09-13T18:46:19;5.50;;;3.63;;
31694;SDS011;18289;51.330;4.946;2022-09-13T18:48:49;3.60;;;3.10;;